Time;durP1;ratioP1;P1;durP2;ratioP2;P2;SDS_P1;SDS_P2;PMS_P1;PMS_P2;Temp;Humidity;BMP_temperature;BMP_pressure;BME280_temperature;BME280_humidity;BME280_pressure;Samples;Min_cycle;Max_cycle;Signal;HPM_P1;HPM_P2
2022/06/06 00:00:56;;;;;;;;;;;;;;;;;;1926612;28;7017;-68
2022/06/06 00:01:53;;;;;;;;;;;;;;;;;;1926913;28;7092;-68
2022/06/06 00:02:50;;;;;;;;;;;;;;;;;;1924265;28;7001;-68
2022/06/06 00:03:48;;;;;;;;;;;;;;;;;;1923522;28;7009;-68
2022/06/06 00:04:46;;;;;;;;;;;;;;;;;;1922840;28;7030;-70
2022/06/06 00:05:45;;;;;;;;;;;;;;;;;;1925524;28;7009;-69
2022/06/06 00:06:43;;;;;;;;;;;;;;;;;;1927946;28;7005;-68
2022/06/06 00:07:41;;;;;;;;;;;;;;;;;;1925904;28;7001;-69
2022/06/06 00:08:39;;;;;;;;;;;;;;;;;;1923860;28;7025;-68
2022/06/06 00:09:36;;;;;;;;;;;;;;;;;;1924328;28;7153;-68
2022/06/06 00:10:34;;;;;;;;;;;;;;;;;;1928071;28;7020;-68
2022/06/06 00:11:32;;;;;;;;;;;;;;;;;;1927878;28;7013;-68
2022/06/06 00:12:29;;;;;;;;;;;;;;;;;;1925071;28;7096;-69
2022/06/06 00:13:27;;;;;;;;;;;;;;;;;;1924469;28;7116;-68
2022/06/06 00:14:25;;;;;;;;;;;;;;;;;;1927228;28;7005;-70
2022/06/06 00:15:22;;;;;;;;;;;;;;;;;;1925521;28;7100;-70
2022/06/06 00:16:20;;;;;;;;;;;;;;;;;;1921615;28;7025;-68
2022/06/06 00:17:17;;;;;;;;;;;;;;;;;;1925555;28;7045;-68
2022/06/06 00:18:15;;;;;;;;;;;;;;;;;;1913959;28;8099;-68
2022/06/06 00:19:12;;;;;;;;;;;;;;;;;;1914515;28;7029;-68
2022/06/06 00:20:10;;;;;;;;;;;;;;;;;;1919366;28;7009;-68
2022/06/06 00:21:10;;;;;;;;;;;;;;;;;;1925083;28;7095;-69
2022/06/06 00:22:07;;;;;;;;;;;;;;;;;;1919672;28;7093;-69
2022/06/06 00:23:05;;;;;;;;;;;;;;;;;;1921122;28;7124;-68
2022/06/06 00:24:03;;;;;;;;;;;;;;;;;;1920425;28;7073;-68
2022/06/06 00:25:00;;;;;;;;;;;;;;;;;;1925225;28;8054;-68
2022/06/06 00:25:58;;;;;;;;;;;;;;;;;;1922330;28;7140;-69
2022/06/06 00:26:56;;;;;;;;;;;;;;;;;;1920374;28;7014;-68
2022/06/06 00:27:53;;;;;;;;;;;;;;;;;;1920108;28;7037;-68
2022/06/06 00:28:51;;;;;;;;;;;;;;;;;;1922061;28;7100;-69
2022/06/06 00:29:49;;;;;;;;;;;;;;;;;;1924104;28;7009;-68
2022/06/06 00:30:47;;;;;;;;;;;;;;;;;;1926019;28;7009;-68
2022/06/06 00:35:34;;;;;;;;;;;;;;;;;;1918857;28;7005;-69
2022/06/06 00:36:32;;;;;;;;;;;;;;;;;;1921132;28;7088;-69
2022/06/06 00:37:31;;;;;;;;;;;;;;;;;;1923212;28;7002;-68
2022/06/06 00:38:28;;;;;;;;;;;;;;;;;;1923132;28;7021;-69
2022/06/06 00:39:26;;;;;;;;;;;;;;;;;;1920589;28;7001;-69
2022/06/06 00:40:25;;;;;;;;;;;;;;;;;;1926137;28;7006;-68
2022/06/06 00:41:22;;;;;;;;;;;;;;;;;;1913885;28;7113;-71
2022/06/06 00:42:22;;;;;;;;;;;;;;;;;;1916478;28;7009;-68
2022/06/06 00:43:20;;;;;;;;;;;;;;;;;;1921029;28;7021;-68
2022/06/06 00:44:20;;;;;;;;;;;;;;;;;;1920004;28;7128;-68
2022/06/06 00:45:23;;;;;;;;;;;;;;;;;;1915519;28;7005;-69
2022/06/06 00:46:21;;;;;;;;;;;;;;;;;;1921792;28;7016;-69
2022/06/06 00:47:27;;;;;;;;;;;;;;;;;;1926056;28;7009;-69
2022/06/06 00:48:33;;;;;;;;;;;;;;;;;;1920085;28;7013;-70
2022/06/06 00:49:36;;;;;;;;;;;;;;;;;;1922391;28;7097;-68
2022/06/06 00:50:46;;;;;;;;;;;;;;;;;;1921659;28;8070;-70
2022/06/06 00:51:44;;;;;;;;;;;;;;;;;;1923234;28;7085;-68
2022/06/06 00:52:43;;;;;;;;;;;;;;;;;;1922762;28;7009;-68
2022/06/06 00:53:46;;;;;;;;;;;;;;;;;;1923566;28;7097;-68
2022/06/06 00:54:47;;;;;;;;;;;;;;;;;;1922037;28;7100;-68
2022/06/06 00:55:49;;;;;;;;;;;;;;;;;;1922698;28;7364;-69
2022/06/06 00:56:50;;;;;;;;;;;;;;;;;;1912116;28;7952;-68
2022/06/06 00:57:51;;;;;;;;;;;;;;;;;;1911749;28;7005;-68
2022/06/06 00:58:52;;;;;;;;;;;;;;;;;;1924891;28;7005;-68
2022/06/06 00:59:49;;;;;;;;;;;;;;;;;;1916601;28;7112;-69
2022/06/06 01:00:48;;;;;;;;;;;;;;;;;;1919625;28;7088;-67
2022/06/06 01:01:49;;;;;;;;;;;;;;;;;;1919622;28;7371;-69
2022/06/06 01:02:50;;;;;;;;;;;;;;;;;;1921839;28;8081;-68
2022/06/06 01:03:48;;;;;;;;;;;;;;;;;;1921685;28;7010;-68
2022/06/06 01:04:46;;;;;;;;;;;;;;;;;;1913958;28;7231;-70
2022/06/06 01:05:47;;;;;;;;;;;;;;;;;;1915992;28;7021;-69
2022/06/06 01:06:45;;;;;;;;;;;;;;;;;;1919082;28;7303;-69
2022/06/06 01:07:42;;;;;;;;;;;;;;;;;;1922600;28;7278;-68
2022/06/06 01:08:41;;;;;;;;;;;;;;;;;;1925806;28;7013;-68
2022/06/06 01:09:40;;;;;;;;;;;;;;;;;;1922899;28;7117;-69
2022/06/06 01:10:38;;;;;;;;;;;;;;;;;;1920760;28;7033;-69
2022/06/06 01:11:38;;;;;;;;;;;;;;;;;;1922259;28;7069;-69
2022/06/06 01:12:38;;;;;;;;;;;;;;;;;;1924949;28;7013;-68
2022/06/06 01:13:39;;;;;;;;;;;;;;;;;;1923311;28;7021;-69
2022/06/06 01:14:50;;;;;;;;;;;;;;;;;;1921556;28;7006;-70
2022/06/06 01:16:05;;;;;;;;;;;;;;;;;;1919864;28;7261;-68
2022/06/06 01:17:24;;;;;;;;;;;;;;;;;;1921589;28;7078;-68
2022/06/06 01:18:22;;;;;;;;;;;;;;;;;;1922289;28;7091;-69
2022/06/06 01:19:36;;;;;;;;;;;;;;;;;;1918578;28;7005;-68
2022/06/06 01:21:00;;;;;;;;;;;;;;;;;;1913088;28;7201;-68
2022/06/06 01:22:17;;;;;;;;;;;;;;;;;;1925723;28;7013;-69
2022/06/06 01:23:24;;;;;;;;;;;;;;;;;;1925907;28;8516;-69
2022/06/06 01:24:33;;;;;;;;;;;;;;;;;;1927497;28;7100;-70
2022/06/06 01:25:45;;;;;;;;;;;;;;;;;;1915413;28;7186;-68
2022/06/06 01:26:55;;;;;;;;;;;;;;;;;;1914866;28;7010;-69
2022/06/06 01:27:56;;;;;;;;;;;;;;;;;;1921364;28;7096;-68
2022/06/06 01:28:56;;;;;;;;;;;;;;;;;;1924200;28;7092;-70
2022/06/06 01:29:58;;;;;;;;;;;;;;;;;;1923005;28;8043;-69
2022/06/06 01:31:01;;;;;;;;;;;;;;;;;;1922828;28;7319;-67
2022/06/06 01:32:04;;;;;;;;;;;;;;;;;;1918243;28;7046;-68
2022/06/06 01:33:02;;;;;;;;;;;;;;;;;;1920255;28;7046;-69
2022/06/06 01:34:01;;;;;;;;;;;;;;;;;;1927508;28;8552;-68
2022/06/06 01:34:58;;;;;;;;;;;;;;;;;;1923055;28;7104;-67
2022/06/06 01:36:00;;;;;;;;;;;;;;;;;;1919653;28;7009;-68
2022/06/06 01:36:58;;;;;;;;;;;;;;;;;;1923925;28;7892;-68
2022/06/06 01:37:55;;;;;;;;;;;;;;;;;;1912509;28;8652;-68
2022/06/06 01:38:54;;;;;;;;;;;;;;;;;;1913595;28;7005;-69
2022/06/06 01:39:56;;;;;;;;;;;;;;;;;;1919482;28;7009;-68
2022/06/06 01:41:05;;;;;;;;;;;;;;;;;;1920490;28;8094;-68
2022/06/06 01:42:11;;;;;;;;;;;;;;;;;;1915166;28;7375;-67
2022/06/06 01:43:15;;;;;;;;;;;;;;;;;;1910353;28;7088;-69
2022/06/06 01:44:16;;;;;;;;;;;;;;;;;;1927630;28;7013;-68
2022/06/06 01:45:33;;;;;;;;;;;;;;;;;;1919033;28;7029;-67
2022/06/06 01:46:34;;;;;;;;;;;;;;;;;;1922150;28;7194;-67
2022/06/06 01:47:40;;;;;;;;;;;;;;;;;;1924728;28;7002;-68
2022/06/06 01:48:40;;;;;;;;;;;;;;;;;;1919954;28;7010;-68
2022/06/06 01:49:39;;;;;;;;;;;;;;;;;;1920618;28;7009;-69
2022/06/06 01:50:38;;;;;;;;;;;;;;;;;;1925915;28;7005;-68
2022/06/06 01:51:36;;;;;;;;;;;;;;;;;;1922032;28;7027;-64
2022/06/06 01:52:52;;;;;;;;;;;;;;;;;;1922602;28;7005;-64
2022/06/06 01:53:49;;;;;;;;;;;;;;;;;;1925438;28;7287;-64
2022/06/06 01:54:46;;;;;;;;;;;;;;;;;;1923040;28;7038;-65
2022/06/06 01:55:46;;;;;;;;;;;;;;;;;;1911535;28;9392;-65
2022/06/06 01:56:44;;;;;;;;;;;;;;;;;;1918532;28;8038;-64
2022/06/06 01:57:42;;;;;;;;;;;;;;;;;;1916704;28;7100;-64
2022/06/06 01:58:39;;;;;;;;;;;;;;;;;;1923232;28;7005;-65
2022/06/06 01:59:37;;;;;;;;;;;;;;;;;;1920586;28;7009;-64
2022/06/06 02:00:36;;;;;;;;;;;;;;;;;;1923017;28;7014;-64
2022/06/06 02:01:33;;;;;;;;;;;;;;;;;;1926288;28;7097;-66
2022/06/06 02:02:31;;;;;;;;;;;;;;;;;;1926421;28;7009;-65
2022/06/06 02:03:29;;;;;;;;;;;;;;;;;;1927243;28;7021;-65
2022/06/06 02:04:26;;;;;;;;;;;;;;;;;;1925255;28;7695;-65
2022/06/06 02:05:25;;;;;;;;;;;;;;;;;;1921400;28;7017;-65
2022/06/06 02:06:23;;;;;;;;;;;;;;;;;;1921572;28;7092;-65
2022/06/06 02:07:20;;;;;;;;;;;;;;;;;;1919716;28;7012;-65
2022/06/06 02:08:19;;;;;;;;;;;;;;;;;;1922656;28;7148;-65
2022/06/06 02:09:16;;;;;;;;;;;;;;;;;;1917911;28;7006;-65
2022/06/06 02:10:15;;;;;;;;;;;;;;;;;;1917329;28;7077;-64
2022/06/06 02:11:13;;;;;;;;;;;;;;;;;;1920818;28;7005;-64
2022/06/06 02:12:10;;;;;;;;;;;;;;;;;;1925730;28;7429;-65
2022/06/06 02:13:08;;;;;;;;;;;;;;;;;;1921029;28;7046;-64
2022/06/06 02:14:06;;;;;;;;;;;;;;;;;;1922565;28;7096;-64
2022/06/06 02:15:05;;;;;;;;;;;;;;;;;;1921230;28;7002;-64
2022/06/06 02:16:03;;;;;;;;;;;;;;;;;;1915834;28;8089;-63
2022/06/06 02:17:00;;;;;;;;;;;;;;;;;;1912092;28;7001;-64
2022/06/06 02:17:58;;;;;;;;;;;;;;;;;;1920217;28;7013;-63
2022/06/06 02:18:55;;;;;;;;;;;;;;;;;;1923875;28;7040;-64
2022/06/06 02:19:53;;;;;;;;;;;;;;;;;;1921276;28;7096;-64
2022/06/06 02:20:50;;;;;;;;;;;;;;;;;;1922610;28;7001;-63
2022/06/06 02:21:48;;;;;;;;;;;;;;;;;;1915856;28;7002;-64
2022/06/06 02:22:45;;;;;;;;;;;;;;;;;;1912862;28;8018;-65
2022/06/06 02:23:43;;;;;;;;;;;;;;;;;;1920888;28;7190;-65
2022/06/06 02:24:41;;;;;;;;;;;;;;;;;;1918670;28;7009;-64
2022/06/06 02:25:39;;;;;;;;;;;;;;;;;;1921292;28;8030;-64
2022/06/06 02:26:36;;;;;;;;;;;;;;;;;;1913557;28;7105;-65
2022/06/06 02:27:34;;;;;;;;;;;;;;;;;;1912328;28;7093;-64
2022/06/06 02:28:31;;;;;;;;;;;;;;;;;;1919593;28;7001;-64
2022/06/06 02:29:29;;;;;;;;;;;;;;;;;;1920715;28;7017;-64
2022/06/06 02:30:28;;;;;;;;;;;;;;;;;;1920563;28;7450;-64
2022/06/06 02:31:27;;;;;;;;;;;;;;;;;;1926415;28;7041;-64
2022/06/06 02:32:24;;;;;;;;;;;;;;;;;;1927113;28;8041;-64
2022/06/06 02:33:22;;;;;;;;;;;;;;;;;;1926109;28;7005;-64
2022/06/06 02:34:19;;;;;;;;;;;;;;;;;;1924745;28;7022;-64
2022/06/06 02:35:18;;;;;;;;;;;;;;;;;;1924140;28;7009;-64
2022/06/06 02:36:16;;;;;;;;;;;;;;;;;;1921021;28;7005;-64
2022/06/06 02:37:13;;;;;;;;;;;;;;;;;;1919411;28;7038;-65
2022/06/06 02:38:13;;;;;;;;;;;;;;;;;;1919022;28;7021;-64
2022/06/06 02:39:10;;;;;;;;;;;;;;;;;;1918238;28;7125;-64
2022/06/06 02:40:09;;;;;;;;;;;;;;;;;;1917065;28;7006;-64
2022/06/06 02:41:09;;;;;;;;;;;;;;;;;;1923572;28;7013;-64
2022/06/06 02:42:07;;;;;;;;;;;;;;;;;;1918409;28;7006;-67
2022/06/06 02:43:04;;;;;;;;;;;;;;;;;;1924590;28;7113;-66
2022/06/06 02:44:02;;;;;;;;;;;;;;;;;;1914284;28;7089;-67
2022/06/06 02:44:59;;;;;;;;;;;;;;;;;;1916113;28;7005;-67
2022/06/06 02:45:57;;;;;;;;;;;;;;;;;;1925837;28;7029;-67
2022/06/06 02:46:54;;;;;;;;;;;;;;;;;;1927099;28;7016;-64
2022/06/06 02:47:53;;;;;;;;;;;;;;;;;;1921385;28;7100;-64
2022/06/06 02:48:51;;;;;;;;;;;;;;;;;;1923679;28;7045;-65
2022/06/06 02:49:48;;;;;;;;;;;;;;;;;;1926948;28;7113;-64
2022/06/06 02:50:46;;;;;;;;;;;;;;;;;;1927101;28;7013;-64
2022/06/06 02:51:43;;;;;;;;;;;;;;;;;;1921626;28;7009;-65
2022/06/06 02:52:40;;;;;;;;;;;;;;;;;;1920497;28;7128;-64
2022/06/06 02:53:39;;;;;;;;;;;;;;;;;;1919596;28;7088;-64
2022/06/06 02:54:37;;;;;;;;;;;;;;;;;;1923502;28;7009;-67
2022/06/06 02:55:35;;;;;;;;;;;;;;;;;;1926863;28;7009;-67
2022/06/06 02:56:32;;;;;;;;;;;;;;;;;;1924004;28;7091;-64
2022/06/06 02:57:43;;;;;;;;;;;;;;;;;;1919200;28;7045;-65
2022/06/06 02:58:40;;;;;;;;;;;;;;;;;;1919579;28;7078;-67
2022/06/06 02:59:38;;;;;;;;;;;;;;;;;;1913290;28;7021;-66
2022/06/06 03:00:41;;;;;;;;;;;;;;;;;;1916145;28;7324;-67
2022/06/06 03:01:38;;;;;;;;;;;;;;;;;;1925399;28;7279;-67
2022/06/06 03:02:36;;;;;;;;;;;;;;;;;;1924690;28;7040;-64
2022/06/06 03:03:35;;;;;;;;;;;;;;;;;;1924254;28;7092;-64
2022/06/06 03:04:32;;;;;;;;;;;;;;;;;;1923660;28;7021;-64
2022/06/06 03:05:50;;;;;;;;;;;;;;;;;;1920465;28;7057;-67
2022/06/06 03:06:57;;;;;;;;;;;;;;;;;;1925504;28;7112;-66
2022/06/06 03:08:00;;;;;;;;;;;;;;;;;;1920866;28;7096;-66
2022/06/06 03:08:58;;;;;;;;;;;;;;;;;;1923199;28;7104;-65
2022/06/06 03:10:13;;;;;;;;;;;;;;;;;;1924599;28;7108;-65
2022/06/06 03:11:10;;;;;;;;;;;;;;;;;;1927350;28;7120;-68
2022/06/06 03:12:23;;;;;;;;;;;;;;;;;;1920560;28;7092;-67
2022/06/06 03:13:41;;;;;;;;;;;;;;;;;;1926017;28;7153;-67
2022/06/06 03:14:42;;;;;;;;;;;;;;;;;;1912347;28;7089;-66
2022/06/06 03:20:46;;;;;;;;;;;;;;;;;;1922456;28;7009;-67
2022/06/06 03:21:36;;;;;;;;;;;;;;;;;;1917990;28;7045;-67
2022/06/06 03:22:45;;;;;;;;;;;;;;;;;;1920958;28;7046;-67
2022/06/06 03:24:01;;;;;;;;;;;;;;;;;;1923994;28;8036;-67
2022/06/06 03:25:17;;;;;;;;;;;;;;;;;;1920570;28;7327;-67
2022/06/06 03:26:32;;;;;;;;;;;;;;;;;;1926949;28;7009;-66
2022/06/06 03:27:35;;;;;;;;;;;;;;;;;;1926180;28;8062;-67
2022/06/06 03:28:58;;;;;;;;;;;;;;;;;;1925183;28;7379;-66
2022/06/06 03:30:08;;;;;;;;;;;;;;;;;;1925576;28;7129;-67
2022/06/06 03:31:18;;;;;;;;;;;;;;;;;;1926381;28;7128;-67
2022/06/06 03:32:45;;;;;;;;;;;;;;;;;;1925568;28;7100;-67
2022/06/06 03:33:42;;;;;;;;;;;;;;;;;;1882281;28;7014;-67
2022/06/06 03:35:12;;;;;;;;;;;;;;;;;;1882517;28;7117;-67
2022/06/06 03:36:10;;;;;;;;;;;;;;;;;;1915307;28;7030;-67
2022/06/06 03:37:26;;;;;;;;;;;;;;;;;;1921086;28;7003;-67
2022/06/06 03:38:34;;;;;;;;;;;;;;;;;;1919952;28;7033;-67
2022/06/06 03:39:58;;;;;;;;;;;;;;;;;;1925689;28;8087;-65
2022/06/06 03:40:55;;;;;;;;;;;;;;;;;;1891763;28;7322;-65
2022/06/06 03:42:05;;;;;;;;;;;;;;;;;;1927183;28;7489;-64
2022/06/06 03:43:08;;;;;;;;;;;;;;;;;;1915714;28;7266;-64
2022/06/06 03:44:33;;;;;;;;;;;;;;;;;;1916393;28;8023;-64
2022/06/06 03:45:30;;;;;;;;;;;;;;;;;;1912828;28;7034;-68
2022/06/06 03:46:29;;;;;;;;;;;;;;;;;;1920440;28;7001;-67
2022/06/06 03:47:29;;;;;;;;;;;;;;;;;;1917613;28;7001;-64
2022/06/06 03:48:32;;;;;;;;;;;;;;;;;;1911878;28;7371;-64
2022/06/06 03:49:32;;;;;;;;;;;;;;;;;;1919701;28;7387;-65
2022/06/06 03:50:30;;;;;;;;;;;;;;;;;;1911916;28;7525;-64
2022/06/06 03:51:43;;;;;;;;;;;;;;;;;;1927315;28;7105;-65
2022/06/06 03:52:40;;;;;;;;;;;;;;;;;;1921239;28;7096;-64
2022/06/06 03:53:38;;;;;;;;;;;;;;;;;;1923855;28;7046;-64
2022/06/06 03:54:39;;;;;;;;;;;;;;;;;;1923281;28;7092;-64
2022/06/06 03:55:59;;;;;;;;;;;;;;;;;;1928090;28;7112;-64
2022/06/06 03:57:05;;;;;;;;;;;;;;;;;;1895796;28;7335;-64
2022/06/06 03:58:03;;;;;;;;;;;;;;;;;;1919410;28;7006;-65
2022/06/06 03:59:01;;;;;;;;;;;;;;;;;;1918465;28;7148;-65
2022/06/06 04:00:01;;;;;;;;;;;;;;;;;;1918188;28;7001;-65
2022/06/06 04:01:00;;;;;;;;;;;;;;;;;;1924581;28;7005;-64
2022/06/06 04:02:00;;;;;;;;;;;;;;;;;;1921709;28;7124;-65
2022/06/06 04:02:58;;;;;;;;;;;;;;;;;;1927921;28;7005;-63
2022/06/06 04:03:57;;;;;;;;;;;;;;;;;;1924496;28;8102;-65
2022/06/06 04:04:59;;;;;;;;;;;;;;;;;;1912512;28;7049;-64
2022/06/06 04:06:01;;;;;;;;;;;;;;;;;;1912439;28;7271;-64
2022/06/06 04:07:00;;;;;;;;;;;;;;;;;;1921547;28;7569;-65
2022/06/06 04:07:58;;;;;;;;;;;;;;;;;;1919518;28;8086;-64
2022/06/06 04:08:55;;;;;;;;;;;;;;;;;;1920877;28;7005;-65
2022/06/06 04:09:53;;;;;;;;;;;;;;;;;;1919049;28;7350;-65
2022/06/06 04:10:50;;;;;;;;;;;;;;;;;;1919805;28;7046;-65
2022/06/06 04:11:47;;;;;;;;;;;;;;;;;;1923755;28;7005;-65
2022/06/06 04:12:45;;;;;;;;;;;;;;;;;;1928122;28;7069;-64
2022/06/06 04:13:44;;;;;;;;;;;;;;;;;;1927048;28;7021;-65
2022/06/06 04:14:45;;;;;;;;;;;;;;;;;;1928054;28;7005;-65
2022/06/06 04:15:52;;;;;;;;;;;;;;;;;;1924536;28;8366;-64
2022/06/06 04:17:08;;;;;;;;;;;;;;;;;;1919454;28;7302;-68
2022/06/06 04:18:12;;;;;;;;;;;;;;;;;;1924013;28;7100;-65
2022/06/06 04:19:15;;;;;;;;;;;;;;;;;;1924242;28;7100;-67
2022/06/06 04:20:22;;;;;;;;;;;;;;;;;;1919912;28;7092;-65
2022/06/06 04:21:25;;;;;;;;;;;;;;;;;;1917053;28;7113;-66
2022/06/06 04:22:33;;;;;;;;;;;;;;;;;;1917038;28;7073;-67
2022/06/06 04:23:54;;;;;;;;;;;;;;;;;;1924886;28;7001;-67
2022/06/06 04:25:15;;;;;;;;;;;;;;;;;;1912404;28;7045;-67
2022/06/06 04:26:20;;;;;;;;;;;;;;;;;;1915472;28;7005;-67
2022/06/06 04:27:34;;;;;;;;;;;;;;;;;;1922707;28;7041;-67
2022/06/06 04:28:45;;;;;;;;;;;;;;;;;;1920659;28;8094;-68
2022/06/06 04:29:54;;;;;;;;;;;;;;;;;;1919091;28;7092;-64
2022/06/06 04:31:10;;;;;;;;;;;;;;;;;;1925037;28;7005;-67
2022/06/06 04:32:30;;;;;;;;;;;;;;;;;;1927358;28;8046;-67
2022/06/06 04:33:27;;;;;;;;;;;;;;;;;;1926307;28;7005;-67
2022/06/06 04:34:24;;;;;;;;;;;;;;;;;;1928553;28;7045;-64
2022/06/06 04:35:27;;;;;;;;;;;;;;;;;;1919578;28;8021;-66
2022/06/06 04:36:33;;;;;;;;;;;;;;;;;;1917187;28;8217;-66
2022/06/06 04:37:39;;;;;;;;;;;;;;;;;;1928147;28;7001;-67
2022/06/06 04:38:56;;;;;;;;;;;;;;;;;;1927714;28;8372;-67
2022/06/06 04:40:11;;;;;;;;;;;;;;;;;;1925514;28;7151;-66
2022/06/06 04:41:29;;;;;;;;;;;;;;;;;;1919556;28;7005;-67
2022/06/06 04:42:47;;;;;;;;;;;;;;;;;;1909961;28;7354;-67
2022/06/06 04:43:56;;;;;;;;;;;;;;;;;;1927216;28;7089;-66
2022/06/06 04:45:03;;;;;;;;;;;;;;;;;;1927276;28;7001;-64
2022/06/06 04:46:10;;;;;;;;;;;;;;;;;;1914981;28;8023;-64
2022/06/06 04:47:14;;;;;;;;;;;;;;;;;;1919731;28;8636;-67
2022/06/06 04:48:13;;;;;;;;;;;;;;;;;;1928808;28;7095;-65
2022/06/06 04:49:11;;;;;;;;;;;;;;;;;;1921533;28;7017;-64
2022/06/06 04:50:11;;;;;;;;;;;;;;;;;;1927562;28;7017;-65
2022/06/06 04:51:11;;;;;;;;;;;;;;;;;;1912751;28;7334;-64
2022/06/06 04:52:11;;;;;;;;;;;;;;;;;;1912281;28;7009;-64
2022/06/06 04:53:12;;;;;;;;;;;;;;;;;;1922270;28;7057;-64
2022/06/06 04:54:14;;;;;;;;;;;;;;;;;;1924321;28;7013;-64
2022/06/06 04:55:14;;;;;;;;;;;;;;;;;;1923162;28;7033;-64
2022/06/06 04:56:15;;;;;;;;;;;;;;;;;;1919264;28;7164;-64
2022/06/06 04:57:14;;;;;;;;;;;;;;;;;;1910395;28;7041;-64
2022/06/06 04:58:13;;;;;;;;;;;;;;;;;;1922152;28;7141;-64
2022/06/06 04:59:13;;;;;;;;;;;;;;;;;;1914715;28;7006;-64
2022/06/06 05:00:11;;;;;;;;;;;;;;;;;;1912433;28;7005;-64
2022/06/06 05:01:10;;;;;;;;;;;;;;;;;;1924471;28;7152;-64
2022/06/06 05:02:08;;;;;;;;;;;;;;;;;;1920001;28;7005;-64
2022/06/06 05:03:06;;;;;;;;;;;;;;;;;;1924159;28;8134;-64
2022/06/06 05:04:03;;;;;;;;;;;;;;;;;;1927981;28;7089;-65
2022/06/06 05:05:01;;;;;;;;;;;;;;;;;;1919330;28;7330;-64
2022/06/06 05:06:05;;;;;;;;;;;;;;;;;;1905623;28;7005;-64
2022/06/06 05:07:18;;;;;;;;;;;;;;;;;;1912156;28;7124;-66
2022/06/06 05:08:32;;;;;;;;;;;;;;;;;;1922113;28;7002;-64
2022/06/06 05:09:39;;;;;;;;;;;;;;;;;;1920199;28;7069;-66
2022/06/06 05:10:49;;;;;;;;;;;;;;;;;;1919771;28;7092;-67
2022/06/06 05:12:04;;;;;;;;;;;;;;;;;;1922659;28;7006;-65
2022/06/06 05:13:12;;;;;;;;;;;;;;;;;;1922962;28;7002;-64
2022/06/06 05:14:35;;;;;;;;;;;;;;;;;;1918811;28;7100;-64
2022/06/06 05:15:37;;;;;;;;;;;;;;;;;;1882287;28;7085;-64
2022/06/06 05:16:55;;;;;;;;;;;;;;;;;;1923003;28;7109;-64
2022/06/06 05:17:55;;;;;;;;;;;;;;;;;;1920586;28;7080;-65
2022/06/06 05:18:58;;;;;;;;;;;;;;;;;;1918343;28;7057;-64
2022/06/06 05:20:14;;;;;;;;;;;;;;;;;;1910418;28;7041;-64
2022/06/06 05:21:30;;;;;;;;;;;;;;;;;;1921859;28;7026;-66
2022/06/06 05:22:46;;;;;;;;;;;;;;;;;;1921457;28;7109;-64
2022/06/06 05:24:01;;;;;;;;;;;;;;;;;;1927281;28;7093;-65
2022/06/06 05:25:17;;;;;;;;;;;;;;;;;;1919633;28;7005;-64
2022/06/06 05:26:18;;;;;;;;;;;;;;;;;;1927134;28;7096;-64
2022/06/06 05:27:34;;;;;;;;;;;;;;;;;;1924292;28;7081;-64
2022/06/06 05:28:44;;;;;;;;;;;;;;;;;;1912153;28;7009;-64
2022/06/06 05:29:47;;;;;;;;;;;;;;;;;;1911382;28;7076;-64
2022/06/06 05:30:54;;;;;;;;;;;;;;;;;;1910143;28;7029;-64
2022/06/06 05:31:57;;;;;;;;;;;;;;;;;;1911471;28;7009;-65
2022/06/06 05:33:02;;;;;;;;;;;;;;;;;;1919483;28;7005;-64
2022/06/06 05:34:06;;;;;;;;;;;;;;;;;;1924585;28;7018;-65
2022/06/06 05:35:14;;;;;;;;;;;;;;;;;;1913309;28;7013;-65
2022/06/06 05:36:14;;;;;;;;;;;;;;;;;;1909822;28;7046;-64
2022/06/06 05:37:30;;;;;;;;;;;;;;;;;;1919284;28;7029;-64
2022/06/06 05:38:28;;;;;;;;;;;;;;;;;;1922694;28;7009;-63
2022/06/06 05:39:39;;;;;;;;;;;;;;;;;;1923954;28;7096;-64
2022/06/06 05:40:37;;;;;;;;;;;;;;;;;;1926717;28;7009;-65
2022/06/06 05:41:34;;;;;;;;;;;;;;;;;;1927084;28;7017;-65
2022/06/06 05:42:55;;;;;;;;;;;;;;;;;;1918975;28;8090;-65
2022/06/06 05:43:56;;;;;;;;;;;;;;;;;;1912838;28;7009;-65
2022/06/06 05:45:02;;;;;;;;;;;;;;;;;;1912492;28;7010;-64
2022/06/06 05:46:27;;;;;;;;;;;;;;;;;;1923872;28;7117;-64
2022/06/06 05:47:30;;;;;;;;;;;;;;;;;;1918883;28;7013;-65
2022/06/06 05:48:34;;;;;;;;;;;;;;;;;;1918760;28;7025;-64
2022/06/06 05:49:44;;;;;;;;;;;;;;;;;;1912016;28;7352;-64
2022/06/06 05:50:50;;;;;;;;;;;;;;;;;;1904488;28;7092;-64
2022/06/06 05:51:58;;;;;;;;;;;;;;;;;;1911468;28;7009;-65
2022/06/06 05:53:11;;;;;;;;;;;;;;;;;;1923694;28;7005;-65
2022/06/06 05:54:14;;;;;;;;;;;;;;;;;;1920798;28;7037;-64
2022/06/06 05:55:41;;;;;;;;;;;;;;;;;;1919590;28;7005;-65
2022/06/06 05:56:51;;;;;;;;;;;;;;;;;;1907087;28;7137;-64
2022/06/06 05:57:53;;;;;;;;;;;;;;;;;;1919701;28;7022;-65
2022/06/06 05:58:56;;;;;;;;;;;;;;;;;;1919595;28;7005;-65
2022/06/06 06:00:18;;;;;;;;;;;;;;;;;;1924800;28;7030;-65
2022/06/06 06:01:30;;;;;;;;;;;;;;;;;;1911106;28;9284;-64
2022/06/06 06:02:28;;;;;;;;;;;;;;;;;;1916395;28;7009;-64
2022/06/06 06:03:25;;;;;;;;;;;;;;;;;;1919047;28;7183;-64
2022/06/06 06:04:37;;;;;;;;;;;;;;;;;;1915803;28;7009;-64
2022/06/06 06:05:37;;;;;;;;;;;;;;;;;;1919986;28;7009;-64
2022/06/06 06:06:34;;;;;;;;;;;;;;;;;;1910432;28;7010;-64
2022/06/06 06:07:34;;;;;;;;;;;;;;;;;;1914622;28;7013;-64
2022/06/06 06:08:31;;;;;;;;;;;;;;;;;;1919092;28;7017;-64
2022/06/06 06:09:35;;;;;;;;;;;;;;;;;;1919965;28;8118;-64
2022/06/06 06:10:32;;;;;;;;;;;;;;;;;;1919360;28;7017;-64
2022/06/06 06:11:51;;;;;;;;;;;;;;;;;;1921708;28;7124;-64
2022/06/06 06:12:57;;;;;;;;;;;;;;;;;;1925854;28;7009;-64
2022/06/06 06:14:21;;;;;;;;;;;;;;;;;;1924971;28;7096;-64
2022/06/06 06:15:45;;;;;;;;;;;;;;;;;;1914842;28;7120;-64
2022/06/06 06:16:45;;;;;;;;;;;;;;;;;;1915281;28;7006;-64
2022/06/06 06:17:44;;;;;;;;;;;;;;;;;;1924042;28;7113;-64
2022/06/06 06:18:47;;;;;;;;;;;;;;;;;;1919281;28;7990;-64
2022/06/06 06:19:55;;;;;;;;;;;;;;;;;;1917530;28;7025;-64
2022/06/06 06:21:10;;;;;;;;;;;;;;;;;;1918098;28;7009;-64
2022/06/06 06:22:08;;;;;;;;;;;;;;;;;;1920493;28;7009;-64
2022/06/06 06:23:07;;;;;;;;;;;;;;;;;;1922201;28;7009;-64
2022/06/06 06:24:10;;;;;;;;;;;;;;;;;;1919545;28;7021;-64
2022/06/06 06:25:09;;;;;;;;;;;;;;;;;;1919131;28;7316;-64
2022/06/06 06:26:07;;;;;;;;;;;;;;;;;;1923038;28;7116;-63
2022/06/06 06:27:05;;;;;;;;;;;;;;;;;;1910872;28;7010;-64
2022/06/06 06:28:07;;;;;;;;;;;;;;;;;;1911171;28;7021;-64
2022/06/06 06:29:07;;;;;;;;;;;;;;;;;;1918479;28;7311;-64
2022/06/06 06:30:06;;;;;;;;;;;;;;;;;;1918397;28;7009;-64
2022/06/06 06:31:17;;;;;;;;;;;;;;;;;;1921108;28;7204;-64
2022/06/06 06:32:20;;;;;;;;;;;;;;;;;;1919604;28;7013;-64
2022/06/06 06:33:20;;;;;;;;;;;;;;;;;;1923192;28;7001;-63
2022/06/06 06:34:27;;;;;;;;;;;;;;;;;;1921591;28;7005;-64
2022/06/06 06:35:37;;;;;;;;;;;;;;;;;;1927348;28;7160;-64
2022/06/06 06:36:46;;;;;;;;;;;;;;;;;;1922307;28;7042;-66
2022/06/06 06:37:43;;;;;;;;;;;;;;;;;;1918950;28;7021;-64
2022/06/06 06:38:46;;;;;;;;;;;;;;;;;;1925596;28;7009;-66
2022/06/06 06:39:52;;;;;;;;;;;;;;;;;;1925428;28;7013;-66
2022/06/06 06:41:01;;;;;;;;;;;;;;;;;;1916887;28;7099;-66
2022/06/06 06:41:59;;;;;;;;;;;;;;;;;;1916488;28;7033;-66
2022/06/06 06:43:10;;;;;;;;;;;;;;;;;;1917251;28;7009;-66
2022/06/06 06:44:11;;;;;;;;;;;;;;;;;;1925711;28;7045;-66
2022/06/06 06:45:42;;;;;;;;;;;;;;;;;;1920604;28;7013;-66
2022/06/06 06:46:55;;;;;;;;;;;;;;;;;;1902542;28;7026;-66
2022/06/06 06:47:58;;;;;;;;;;;;;;;;;;1923991;28;7025;-66
2022/06/06 06:49:09;;;;;;;;;;;;;;;;;;1925028;28;7152;-66
2022/06/06 06:50:22;;;;;;;;;;;;;;;;;;1918661;28;7037;-66
2022/06/06 06:51:34;;;;;;;;;;;;;;;;;;1925259;28;7021;-66
2022/06/06 06:52:46;;;;;;;;;;;;;;;;;;1924971;28;7073;-66
2022/06/06 06:53:44;;;;;;;;;;;;;;;;;;1910986;28;7113;-66
2022/06/06 06:54:47;;;;;;;;;;;;;;;;;;1910886;28;7063;-67
2022/06/06 06:55:45;;;;;;;;;;;;;;;;;;1919058;28;7108;-66
2022/06/06 06:56:59;;;;;;;;;;;;;;;;;;1925955;28;7033;-67
2022/06/06 06:58:08;;;;;;;;;;;;;;;;;;1924492;28;9598;-67
2022/06/06 06:59:08;;;;;;;;;;;;;;;;;;1919871;28;8035;-66
2022/06/06 07:00:06;;;;;;;;;;;;;;;;;;1918416;28;7092;-66
2022/06/06 07:01:07;;;;;;;;;;;;;;;;;;1920107;28;7075;-66
2022/06/06 07:08:59;;;;;;;;;;;;;;;;;;1922258;28;7005;-64
2022/06/06 07:10:15;;;;;;;;;;;;;;;;;;1925575;28;7014;-64
2022/06/06 07:11:28;;;;;;;;;;;;;;;;;;1919426;28;7109;-64
2022/06/06 07:12:44;;;;;;;;;;;;;;;;;;1926501;28;7034;-64
2022/06/06 07:14:04;;;;;;;;;;;;;;;;;;1926262;28;7093;-64
2022/06/06 07:15:08;;;;;;;;;;;;;;;;;;1901411;28;7033;-64
2022/06/06 07:16:19;;;;;;;;;;;;;;;;;;1911113;28;7105;-64
2022/06/06 07:17:18;;;;;;;;;;;;;;;;;;1922753;28;7021;-64
2022/06/06 07:18:18;;;;;;;;;;;;;;;;;;1924935;28;7054;-64
2022/06/06 07:19:18;;;;;;;;;;;;;;;;;;1925971;28;7005;-64
2022/06/06 07:20:18;;;;;;;;;;;;;;;;;;1919211;28;7092;-64
2022/06/06 07:21:17;;;;;;;;;;;;;;;;;;1919016;28;7042;-65
2022/06/06 07:22:15;;;;;;;;;;;;;;;;;;1916748;28;7041;-64
2022/06/06 07:23:15;;;;;;;;;;;;;;;;;;1910500;28;7030;-64
2022/06/06 07:24:15;;;;;;;;;;;;;;;;;;1919633;28;7009;-64
2022/06/06 07:25:13;;;;;;;;;;;;;;;;;;1927540;28;7092;-64
2022/06/06 07:26:12;;;;;;;;;;;;;;;;;;1905344;28;7842;-65
2022/06/06 07:27:10;;;;;;;;;;;;;;;;;;1903382;28;8061;-65
2022/06/06 07:28:15;;;;;;;;;;;;;;;;;;1918255;28;7245;-64
2022/06/06 07:29:15;;;;;;;;;;;;;;;;;;1919002;28;7009;-65
2022/06/06 07:30:12;;;;;;;;;;;;;;;;;;1918407;28;7038;-64
2022/06/06 07:31:27;;;;;;;;;;;;;;;;;;1921293;28;7001;-64
2022/06/06 07:32:43;;;;;;;;;;;;;;;;;;1922823;28;8023;-65
2022/06/06 07:33:59;;;;;;;;;;;;;;;;;;1922709;28;8347;-64
2022/06/06 07:35:04;;;;;;;;;;;;;;;;;;1909914;28;7013;-64
2022/06/06 07:36:12;;;;;;;;;;;;;;;;;;1911043;28;7022;-64